Terminal Aerodrome Forecast
Issued by NWS Jackson, MS

Home | Current Version | Previous Version | Text Only | Print | Product List | Glossary On
Versions: 1 2 3 4 5 6 7 8 9 10 11 12 13 14 15 16 17 18
000
FTUS44 KMEG 261937 AAA
TAFTUP
TAF AMD
KTUP 261937Z 2620/2718 36008KT P6SM SCT025
     FM270200 24004KT P6SM SKC
     FM271400 01010KT P6SM OVC015=

USA.gov is the U.S. government's official web portal to all federal, state and local government web resources and services.